Time,TemperatureF,DewpointF,PressureIn,WindDirection,WindDirectionDegrees,WindSpeedMPH,WindSpeedGustMPH,Humidity,HourlyPrecipIn,Conditions,Clouds,dailyrainin,SoftwareType,DateUTC
2013-06-02 00:01:00,67.7,9.3,29.17,North,0,0.0,0.0,1,0.00,,,0.66,WUHU216HW,2013-06-02 04:01:00,
2013-06-02 00:03:00,67.7,9.3,29.16,North,0,0.0,0.0,1,0.00,,,0.00,WUHU216HW,2013-06-02 04:03:00,
2013-06-02 00:09:00,67.7,9.3,29.17,North,0,0.0,0.0,1,0.00,,,0.00,WUHU216HW,2013-06-02 04:09:00,
2013-06-02 00:14:00,67.7,9.3,29.17,North,0,0.0,0.0,1,0.00,,,0.00,WUHU216HW,2013-06-02 04:14:00,
2013-06-02 00:19:00,67.5,9.1,29.17,North,0,0.0,0.0,1,0.00,,,0.00,WUHU216HW,2013-06-02 04:19:00,
2013-06-02 00:24:00,67.5,9.1,29.17,North,0,0.0,0.0,1,0.00,,,0.00,WUHU216HW,2013-06-02 04:24:00,
2013-06-02 00:29:00,67.5,9.1,29.17,North,0,0.0,0.0,1,0.00,,,0.00,WUHU216HW,2013-06-02 04:29:00,
2013-06-02 00:34:00,67.5,9.1,29.17,North,0,0.0,0.0,1,0.00,,,0.00,WUHU216HW,2013-06-02 04:34:00,
2013-06-02 00:39:00,67.5,9.1,29.17,North,0,0.0,0.0,1,0.00,,,0.00,WUHU216HW,2013-06-02 04:39:00,
2013-06-02 00:44:00,67.5,9.1,29.17,North,0,0.0,0.0,1,0.00,,,0.00,WUHU216HW,2013-06-02 04:44:00,
2013-06-02 00:49:00,67.5,9.1,29.17,North,0,0.0,0.0,1,0.00,,,0.00,WUHU216HW,2013-06-02 04:49:00,
2013-06-02 00:54:00,67.5,9.1,29.17,North,0,0.0,0.0,1,0.00,,,0.00,WUHU216HW,2013-06-02 04:54:00,
2013-06-02 00:59:00,67.5,9.1,29.17,North,0,0.0,0.0,1,0.00,,,0.00,WUHU216HW,2013-06-02 04:59:00,
2013-06-02 01:04:00,67.3,9.0,29.17,North,0,0.0,0.0,1,0.00,,,0.00,WUHU216HW,2013-06-02 05:04:00,
2013-06-02 01:10:00,67.3,9.0,29.17,North,0,0.0,0.0,1,0.00,,,0.00,WUHU216HW,2013-06-02 05:10:00,
2013-06-02 01:15:00,67.3,9.0,29.16,North,0,0.0,0.0,1,0.00,,,0.00,WUHU216HW,2013-06-02 05:15:00,
2013-06-02 01:20:00,67.1,8.8,29.17,North,0,0.0,0.0,1,0.00,,,0.00,WUHU216HW,2013-06-02 05:20:00,
2013-06-02 01:25:00,67.0,8.6,29.17,North,0,0.0,0.0,1,0.00,,,0.00,WUHU216HW,2013-06-02 05:25:00,
2013-06-02 01:30:00,67.0,8.6,29.17,North,0,0.0,0.0,1,0.00,,,0.00,WUHU216HW,2013-06-02 05:30:00,
2013-06-02 01:35:00,67.0,8.6,29.17,North,0,0.0,0.0,1,0.00,,,0.00,WUHU216HW,2013-06-02 05:35:00,
2013-06-02 01:40:00,67.0,8.6,29.18,North,0,0.0,0.0,1,0.00,,,0.00,WUHU216HW,2013-06-02 05:40:00,
2013-06-02 01:45:00,67.0,8.6,29.17,North,0,0.0,0.0,1,0.00,,,0.00,WUHU216HW,2013-06-02 05:45:00,
2013-06-02 01:51:00,66.8,8.6,29.17,North,0,0.0,0.0,1,0.00,,,0.00,WUHU216HW,2013-06-02 05:51:00,
2013-06-02 01:56:00,66.6,8.4,29.17,North,0,0.0,0.0,1,0.00,,,0.00,WUHU216HW,2013-06-02 05:56:00,
2013-06-02 02:01:00,66.4,8.3,29.17,North,0,0.0,0.0,1,0.00,,,0.00,WUHU216HW,2013-06-02 06:01:00,
2013-06-02 02:06:00,66.2,8.1,29.17,North,0,0.0,0.0,1,0.00,,,0.00,WUHU216HW,2013-06-02 06:06:00,
2013-06-02 02:11:00,66.1,7.9,29.17,North,0,0.0,0.0,1,0.00,,,0.00,WUHU216HW,2013-06-02 06:11:00,
2013-06-02 02:16:00,65.9,7.8,29.17,North,0,0.0,0.0,1,0.00,,,0.00,WUHU216HW,2013-06-02 06:16:00,
2013-06-02 02:21:00,65.9,7.8,29.17,North,0,0.0,0.0,1,0.00,,,0.00,WUHU216HW,2013-06-02 06:21:00,
2013-06-02 02:26:00,65.9,7.8,29.17,North,0,0.0,0.0,1,0.00,,,0.00,WUHU216HW,2013-06-02 06:26:00,
2013-06-02 02:32:00,65.7,7.7,29.17,North,0,0.0,0.0,1,0.00,,,0.00,WUHU216HW,2013-06-02 06:32:00,
2013-06-02 02:37:00,65.7,7.7,29.17,North,0,0.0,0.0,1,0.00,,,0.00,WUHU216HW,2013-06-02 06:37:00,
2013-06-02 02:42:00,65.7,7.7,29.17,North,0,0.0,0.0,1,0.00,,,0.00,WUHU216HW,2013-06-02 06:42:00,
2013-06-02 02:47:00,65.7,7.7,29.17,North,0,0.0,0.0,1,0.00,,,0.00,WUHU216HW,2013-06-02 06:47:00,
2013-06-02 02:52:00,65.7,7.7,29.17,North,0,0.0,0.0,1,0.00,,,0.00,WUHU216HW,2013-06-02 06:52:00,
2013-06-02 02:57:00,65.5,7.6,29.18,North,0,0.0,0.0,1,0.00,,,0.00,WUHU216HW,2013-06-02 06:57:00,
2013-06-02 03:02:00,65.3,7.4,29.17,North,0,0.0,0.0,1,0.00,,,0.00,WUHU216HW,2013-06-02 07:02:00,
2013-06-02 03:07:00,65.2,7.2,29.18,North,0,0.0,0.0,1,0.00,,,0.00,WUHU216HW,2013-06-02 07:07:00,
2013-06-02 03:12:00,65.2,7.2,29.18,North,0,0.0,0.0,1,0.00,,,0.00,WUHU216HW,2013-06-02 07:12:00,
2013-06-02 03:18:00,64.8,6.9,29.18,North,0,0.0,0.0,1,0.00,,,0.00,WUHU216HW,2013-06-02 07:18:00,
2013-06-02 03:23:00,64.6,6.9,29.18,North,0,0.0,0.0,1,0.00,,,0.00,WUHU216HW,2013-06-02 07:23:00,
2013-06-02 03:28:00,64.4,6.7,29.18,North,0,0.0,0.0,1,0.00,,,0.00,WUHU216HW,2013-06-02 07:28:00,
2013-06-02 03:33:00,64.4,6.7,29.18,North,0,0.0,0.0,1,0.00,,,0.00,WUHU216HW,2013-06-02 07:33:00,
2013-06-02 03:38:00,64.4,6.7,29.18,North,0,0.0,0.0,1,0.00,,,0.00,WUHU216HW,2013-06-02 07:38:00,
2013-06-02 03:43:00,64.3,6.6,29.18,North,0,0.0,0.0,1,0.00,,,0.00,WUHU216HW,2013-06-02 07:43:00,
2013-06-02 03:48:00,63.9,6.3,29.18,North,0,0.0,0.0,1,0.00,,,0.00,WUHU216HW,2013-06-02 07:48:00,
2013-06-02 03:53:00,63.7,6.1,29.18,North,0,0.0,0.0,1,0.00,,,0.00,WUHU216HW,2013-06-02 07:53:00,
2013-06-02 03:58:00,63.5,6.0,29.18,North,0,0.0,0.0,1,0.00,,,0.00,WUHU216HW,2013-06-02 07:58:00,
2013-06-02 04:04:00,63.2,5.8,29.19,North,0,0.0,0.0,1,0.00,,,0.00,WUHU216HW,2013-06-02 08:04:00,
2013-06-02 04:09:00,63.0,5.7,29.19,North,0,0.0,0.0,1,0.00,,,0.00,WUHU216HW,2013-06-02 08:09:00,
2013-06-02 04:14:00,63.0,5.7,29.19,North,0,0.0,0.0,1,0.00,,,0.00,WUHU216HW,2013-06-02 08:14:00,
2013-06-02 04:19:00,63.0,5.7,29.19,North,0,0.0,0.0,1,0.00,,,0.00,WUHU216HW,2013-06-02 08:19:00,
2013-06-02 04:24:00,62.6,5.4,29.19,North,0,0.0,0.0,1,0.00,,,0.00,WUHU216HW,2013-06-02 08:24:00,
2013-06-02 04:29:00,62.6,5.4,29.19,North,0,0.0,0.0,1,0.00,,,0.00,WUHU216HW,2013-06-02 08:29:00,
2013-06-02 04:34:00,62.5,5.2,29.19,North,0,0.0,0.0,1,0.00,,,0.00,WUHU216HW,2013-06-02 08:34:00,
2013-06-02 04:39:00,62.3,5.1,29.19,North,0,0.0,0.0,1,0.00,,,0.00,WUHU216HW,2013-06-02 08:39:00,
2013-06-02 04:44:00,62.3,5.1,29.19,North,0,0.0,0.0,1,0.00,,,0.00,WUHU216HW,2013-06-02 08:44:00,
2013-06-02 04:50:00,62.3,5.1,29.20,North,0,0.0,0.0,1,0.00,,,0.00,WUHU216HW,2013-06-02 08:50:00,
2013-06-02 04:55:00,62.3,5.1,29.20,North,0,0.0,0.0,1,0.00,,,0.00,WUHU216HW,2013-06-02 08:55:00,
2013-06-02 05:00:00,62.1,5.0,29.19,North,0,0.0,0.0,1,0.00,,,0.00,WUHU216HW,2013-06-02 09:00:00,
2013-06-02 05:05:00,61.7,4.7,29.20,North,0,0.0,0.0,1,0.00,,,0.00,WUHU216HW,2013-06-02 09:05:00,
2013-06-02 05:10:00,61.7,4.7,29.20,North,0,0.0,0.0,1,0.00,,,0.00,WUHU216HW,2013-06-02 09:10:00,
2013-06-02 05:15:00,61.7,4.7,29.20,North,0,0.0,0.0,1,0.00,,,0.00,WUHU216HW,2013-06-02 09:15:00,
2013-06-02 05:20:00,61.6,4.5,29.19,North,0,0.0,0.0,1,0.00,,,0.00,WUHU216HW,2013-06-02 09:20:00,
2013-06-02 05:25:00,61.6,4.5,29.20,North,0,0.0,0.0,1,0.00,,,0.00,WUHU216HW,2013-06-02 09:25:00,
2013-06-02 05:31:00,61.2,4.2,29.20,North,0,0.0,0.0,1,0.00,,,0.00,WUHU216HW,2013-06-02 09:31:00,
2013-06-02 05:36:00,61.2,4.2,29.20,North,0,0.0,0.0,1,0.00,,,0.00,WUHU216HW,2013-06-02 09:36:00,
2013-06-02 05:41:00,61.2,4.2,29.19,North,0,0.0,0.0,1,0.00,,,0.00,WUHU216HW,2013-06-02 09:41:00,
2013-06-02 05:46:00,61.0,4.2,29.19,North,0,0.0,0.0,1,0.00,,,0.00,WUHU216HW,2013-06-02 09:46:00,
2013-06-02 05:51:00,60.8,4.0,29.20,North,0,0.0,0.0,1,0.00,,,0.00,WUHU216HW,2013-06-02 09:51:00,
2013-06-02 05:56:00,60.8,4.0,29.20,North,0,0.0,0.0,1,0.00,,,0.00,WUHU216HW,2013-06-02 09:56:00,
2013-06-02 06:01:00,60.8,4.0,29.20,North,0,0.0,0.0,1,0.00,,,0.00,WUHU216HW,2013-06-02 10:01:00,
2013-06-02 06:06:00,60.8,4.0,29.21,North,0,0.0,0.0,1,0.00,,,0.00,WUHU216HW,2013-06-02 10:06:00,
2013-06-02 06:11:00,60.5,3.7,29.21,North,0,0.0,0.0,1,0.00,,,0.00,WUHU216HW,2013-06-02 10:11:00,
2013-06-02 06:17:00,60.5,3.7,29.21,North,0,0.0,0.0,1,0.00,,,0.00,WUHU216HW,2013-06-02 10:17:00,
2013-06-02 06:22:00,60.3,3.5,29.21,North,0,0.0,0.0,1,0.00,,,0.00,WUHU216HW,2013-06-02 10:22:00,
2013-06-02 06:27:00,60.3,3.5,29.22,North,0,0.0,0.0,1,0.00,,,0.00,WUHU216HW,2013-06-02 10:27:00,
2013-06-02 06:32:00,60.3,3.5,29.22,North,0,0.0,0.0,1,0.00,,,0.00,WUHU216HW,2013-06-02 10:32:00,
2013-06-02 06:37:00,60.1,3.4,29.22,North,0,0.0,0.0,1,0.00,,,0.00,WUHU216HW,2013-06-02 10:37:00,
2013-06-02 06:42:00,60.1,3.4,29.22,North,0,0.0,0.0,1,0.00,,,0.00,WUHU216HW,2013-06-02 10:42:00,
2013-06-02 06:47:00,60.3,3.5,29.23,North,0,0.0,0.0,1,0.00,,,0.00,WUHU216HW,2013-06-02 10:47:00,
2013-06-02 06:52:00,60.3,3.5,29.22,North,0,0.0,0.0,1,0.00,,,0.00,WUHU216HW,2013-06-02 10:52:00,
2013-06-02 06:57:00,60.5,3.7,29.23,North,0,0.0,0.0,1,0.00,,,0.00,WUHU216HW,2013-06-02 10:57:00,
2013-06-02 07:02:00,60.5,3.7,29.22,North,0,0.0,0.0,1,0.00,,,0.00,WUHU216HW,2013-06-02 11:02:00,
2013-06-02 07:08:00,60.5,3.7,29.22,North,0,0.0,0.0,1,0.00,,,0.00,WUHU216HW,2013-06-02 11:08:00,
2013-06-02 07:13:00,60.7,3.8,29.22,North,0,0.0,0.0,1,0.00,,,0.00,WUHU216HW,2013-06-02 11:13:00,
2013-06-02 07:18:00,60.8,4.0,29.23,North,0,0.0,0.0,1,0.00,,,0.00,WUHU216HW,2013-06-02 11:18:00,
2013-06-02 07:23:00,61.0,4.2,29.23,North,0,0.0,0.0,1,0.00,,,0.00,WUHU216HW,2013-06-02 11:23:00,
2013-06-02 07:28:00,61.2,4.2,29.23,North,0,0.0,0.0,1,0.00,,,0.00,WUHU216HW,2013-06-02 11:28:00,
2013-06-02 07:33:00,61.6,4.5,29.24,North,0,0.0,0.0,1,0.00,,,0.00,WUHU216HW,2013-06-02 11:33:00,
2013-06-02 07:38:00,61.6,4.5,29.24,North,0,0.0,0.0,1,0.00,,,0.00,WUHU216HW,2013-06-02 11:38:00,
2013-06-02 07:43:00,61.7,4.7,29.23,North,0,0.0,0.0,1,0.00,,,0.00,WUHU216HW,2013-06-02 11:43:00,
2013-06-02 07:48:00,61.9,4.9,29.23,North,0,0.0,0.0,1,0.00,,,0.00,WUHU216HW,2013-06-02 11:48:00,
2013-06-02 07:54:00,62.1,5.0,29.23,North,0,0.0,0.0,1,0.00,,,0.00,WUHU216HW,2013-06-02 11:54:00,
2013-06-02 07:59:00,62.3,5.1,29.23,North,0,0.0,0.0,1,0.00,,,0.00,WUHU216HW,2013-06-02 11:59:00,
2013-06-02 08:04:00,62.5,5.2,29.23,North,0,0.0,0.0,1,0.00,,,0.00,WUHU216HW,2013-06-02 12:04:00,
2013-06-02 08:09:00,62.5,5.2,29.23,North,0,0.0,0.0,1,0.00,,,0.00,WUHU216HW,2013-06-02 12:09:00,
2013-06-02 08:14:00,62.6,5.4,29.23,North,0,0.0,0.0,1,0.00,,,0.00,WUHU216HW,2013-06-02 12:14:00,
2013-06-02 08:19:00,62.6,5.4,29.23,North,0,0.0,0.0,1,0.00,,,0.00,WUHU216HW,2013-06-02 12:19:00,
2013-06-02 08:24:00,62.8,5.5,29.23,North,0,0.0,0.0,1,0.00,,,0.00,WUHU216HW,2013-06-02 12:24:00,
2013-06-02 08:29:00,63.2,5.8,29.24,North,0,0.0,0.0,1,0.00,,,0.00,WUHU216HW,2013-06-02 12:29:00,
2013-06-02 08:34:00,63.4,6.0,29.24,North,0,0.0,0.0,1,0.00,,,0.00,WUHU216HW,2013-06-02 12:34:00,
2013-06-02 08:40:00,63.5,6.0,29.24,North,0,0.0,0.0,1,0.00,,,0.00,WUHU216HW,2013-06-02 12:40:00,
2013-06-02 08:45:00,63.9,6.3,29.24,North,0,0.0,0.0,1,0.00,,,0.00,WUHU216HW,2013-06-02 12:45:00,
2013-06-02 08:50:00,64.3,6.6,29.24,North,0,0.0,0.0,1,0.00,,,0.00,WUHU216HW,2013-06-02 12:50:00,
2013-06-02 08:55:00,64.4,6.7,29.24,North,0,0.0,0.0,1,0.00,,,0.00,WUHU216HW,2013-06-02 12:55:00,
2013-06-02 09:00:00,64.6,6.9,29.24,North,0,0.0,0.0,1,0.00,,,0.00,WUHU216HW,2013-06-02 13:00:00,
2013-06-02 09:05:00,64.8,6.9,29.24,North,0,0.0,0.0,1,0.00,,,0.00,WUHU216HW,2013-06-02 13:05:00,
2013-06-02 09:10:00,65.2,7.2,29.23,North,0,0.0,0.0,1,0.00,,,0.00,WUHU216HW,2013-06-02 13:10:00,
2013-06-02 09:15:00,65.3,7.4,29.24,North,0,0.0,0.0,1,0.00,,,0.00,WUHU216HW,2013-06-02 13:15:00,
2013-06-02 09:20:00,65.7,7.7,29.23,North,0,0.0,0.0,1,0.00,,,0.00,WUHU216HW,2013-06-02 13:20:00,
2013-06-02 09:25:00,66.2,8.1,29.23,North,0,0.0,0.0,1,0.00,,,0.00,WUHU216HW,2013-06-02 13:25:00,
2013-06-02 09:31:00,66.6,8.4,29.23,North,0,0.0,0.0,1,0.00,,,0.00,WUHU216HW,2013-06-02 13:31:00,
2013-06-02 09:36:00,66.6,8.4,29.23,North,0,0.0,0.0,1,0.00,,,0.00,WUHU216HW,2013-06-02 13:36:00,
2013-06-02 09:41:00,67.0,8.6,29.23,North,0,0.0,0.0,1,0.00,,,0.00,WUHU216HW,2013-06-02 13:41:00,
2013-06-02 09:46:00,67.1,8.8,29.24,North,0,0.0,0.0,1,0.00,,,0.00,WUHU216HW,2013-06-02 13:46:00,
2013-06-02 09:51:00,67.0,8.6,29.24,North,0,0.0,0.0,1,0.00,,,0.00,WUHU216HW,2013-06-02 13:51:00,
2013-06-02 09:56:00,67.3,9.0,29.24,North,0,0.0,0.0,1,0.00,,,0.00,WUHU216HW,2013-06-02 13:56:00,
2013-06-02 10:01:00,68.0,9.5,29.24,North,0,0.0,0.0,1,0.00,,,0.00,WUHU216HW,2013-06-02 14:01:00,
2013-06-02 10:06:00,68.6,9.9,29.24,North,0,0.0,0.0,1,0.00,,,0.00,WUHU216HW,2013-06-02 14:06:00,
2013-06-02 10:11:00,68.4,9.8,29.24,North,0,0.0,0.0,1,0.00,,,0.00,WUHU216HW,2013-06-02 14:11:00,
2013-06-02 10:17:00,68.4,9.8,29.25,North,0,0.0,0.0,1,0.00,,,0.00,WUHU216HW,2013-06-02 14:17:00,
2013-06-02 10:22:00,68.8,10.1,29.25,North,0,0.0,0.0,1,0.00,,,0.00,WUHU216HW,2013-06-02 14:22:00,
2013-06-02 10:27:00,68.6,9.9,29.25,North,0,0.0,0.0,1,0.00,,,0.00,WUHU216HW,2013-06-02 14:27:00,
2013-06-02 10:32:00,68.8,10.1,29.25,North,0,0.0,0.0,1,0.00,,,0.00,WUHU216HW,2013-06-02 14:32:00,
2013-06-02 10:37:00,69.5,10.5,29.25,North,0,0.0,0.0,1,0.00,,,0.00,WUHU216HW,2013-06-02 14:37:00,
2013-06-02 10:42:00,69.3,10.5,29.26,North,0,0.0,0.0,1,0.00,,,0.00,WUHU216HW,2013-06-02 14:42:00,
2013-06-02 10:47:00,69.3,10.5,29.26,North,0,0.0,0.0,1,0.00,,,0.00,WUHU216HW,2013-06-02 14:47:00,
2013-06-02 10:52:00,70.2,11.1,29.26,North,0,0.0,0.0,1,0.00,,,0.00,WUHU216HW,2013-06-02 14:52:00,
2013-06-02 10:57:00,68.8,10.1,29.26,North,0,0.0,0.0,1,0.00,,,0.00,WUHU216HW,2013-06-02 14:57:00,
2013-06-02 11:02:00,68.9,10.2,29.26,North,0,0.0,0.0,1,0.00,,,0.00,WUHU216HW,2013-06-02 15:02:00,
2013-06-02 11:08:00,68.9,10.2,29.27,North,0,0.0,0.0,1,0.00,,,0.00,WUHU216HW,2013-06-02 15:08:00,
2013-06-02 11:13:00,68.8,10.1,29.27,North,0,0.0,0.0,1,0.00,,,0.00,WUHU216HW,2013-06-02 15:13:00,
2013-06-02 11:18:00,68.8,10.1,29.27,North,0,0.0,0.0,1,0.00,,,0.00,WUHU216HW,2013-06-02 15:18:00,
2013-06-02 11:23:00,68.2,9.6,29.27,North,0,0.0,0.0,1,0.00,,,0.00,WUHU216HW,2013-06-02 15:23:00,
2013-06-02 11:28:00,68.0,9.5,29.27,North,0,0.0,0.0,1,0.00,,,0.00,WUHU216HW,2013-06-02 15:28:00,
2013-06-02 11:33:00,67.7,9.3,29.28,North,0,0.0,0.0,1,0.00,,,0.00,WUHU216HW,2013-06-02 15:33:00,
2013-06-02 11:38:00,67.9,9.4,29.28,North,0,0.0,0.0,1,0.00,,,0.00,WUHU216HW,2013-06-02 15:38:00,
2013-06-02 11:43:00,67.5,9.1,29.28,North,0,0.0,0.0,1,0.00,,,0.00,WUHU216HW,2013-06-02 15:43:00,
2013-06-02 11:48:00,67.9,9.4,29.28,North,0,0.0,0.0,1,0.00,,,0.00,WUHU216HW,2013-06-02 15:48:00,
2013-06-02 11:54:00,68.6,9.9,29.28,North,0,0.0,0.0,1,0.00,,,0.00,WUHU216HW,2013-06-02 15:54:00,
2013-06-02 11:59:00,68.8,10.1,29.28,North,0,0.0,0.0,1,0.00,,,0.00,WUHU216HW,2013-06-02 15:59:00,
2013-06-02 12:04:00,68.4,9.8,29.28,North,0,0.0,0.0,1,0.00,,,0.00,WUHU216HW,2013-06-02 16:04:00,
2013-06-02 12:09:00,68.2,9.6,29.28,North,0,0.0,0.0,1,0.00,,,0.00,WUHU216HW,2013-06-02 16:09:00,
2013-06-02 12:14:00,68.6,9.9,29.28,North,0,0.0,0.0,1,0.00,,,0.00,WUHU216HW,2013-06-02 16:14:00,
2013-06-02 12:19:00,68.8,10.1,29.28,North,0,0.0,0.0,1,0.00,,,0.00,WUHU216HW,2013-06-02 16:19:00,
2013-06-02 12:24:00,69.1,10.3,29.28,North,0,0.0,0.0,1,0.00,,,0.00,WUHU216HW,2013-06-02 16:24:00,
2013-06-02 12:29:00,70.9,11.7,29.28,North,0,0.0,0.0,1,0.00,,,0.00,WUHU216HW,2013-06-02 16:29:00,
2013-06-02 12:34:00,72.0,12.5,29.28,North,0,0.0,0.0,1,0.00,,,0.00,WUHU216HW,2013-06-02 16:34:00,
2013-06-02 12:39:00,72.5,13.0,29.28,North,0,0.0,0.0,1,0.00,,,0.00,WUHU216HW,2013-06-02 16:39:00,
2013-06-02 12:44:00,72.5,13.0,29.28,North,0,0.0,0.0,1,0.00,,,0.00,WUHU216HW,2013-06-02 16:44:00,
2013-06-02 12:50:00,72.0,12.5,29.28,North,0,0.0,0.0,1,0.00,,,0.00,WUHU216HW,2013-06-02 16:50:00,
2013-06-02 12:55:00,72.0,12.5,29.28,North,0,0.0,0.0,1,0.00,,,0.00,WUHU216HW,2013-06-02 16:55:00,
2013-06-02 13:00:00,71.6,12.2,29.28,North,0,0.0,0.0,1,0.00,,,0.00,WUHU216HW,2013-06-02 17:00:00,
2013-06-02 13:05:00,71.8,12.4,29.28,North,0,0.0,0.0,1,0.00,,,0.00,WUHU216HW,2013-06-02 17:05:00,
2013-06-02 13:10:00,72.5,13.0,29.28,North,0,0.0,0.0,1,0.00,,,0.00,WUHU216HW,2013-06-02 17:10:00,
2013-06-02 13:15:00,73.1,13.4,29.28,North,0,0.0,0.0,1,0.00,,,0.00,WUHU216HW,2013-06-02 17:15:00,
2013-06-02 13:20:00,73.4,13.7,29.28,North,0,0.0,0.0,1,0.00,,,0.00,WUHU216HW,2013-06-02 17:20:00,
2013-06-02 13:25:00,74.0,14.0,29.28,North,0,0.0,0.0,1,0.00,,,0.00,WUHU216HW,2013-06-02 17:25:00,
2013-06-02 13:31:00,74.7,14.6,29.27,North,0,0.0,0.0,1,0.00,,,0.00,WUHU216HW,2013-06-02 17:31:00,
2013-06-02 13:36:00,75.1,14.9,29.28,North,0,0.0,0.0,1,0.00,,,0.00,WUHU216HW,2013-06-02 17:36:00,
2013-06-02 13:41:00,74.9,14.7,29.27,North,0,0.0,0.0,1,0.00,,,0.00,WUHU216HW,2013-06-02 17:41:00,
2013-06-02 13:46:00,74.9,14.7,29.28,North,0,0.0,0.0,1,0.00,,,0.00,WUHU216HW,2013-06-02 17:46:00,
2013-06-02 13:51:00,74.0,14.0,29.28,North,0,0.0,0.0,1,0.00,,,0.00,WUHU216HW,2013-06-02 17:51:00,
2013-06-02 13:56:00,73.4,13.7,29.28,North,0,0.0,0.0,1,0.00,,,0.00,WUHU216HW,2013-06-02 17:56:00,
2013-06-02 14:01:00,72.2,12.7,29.28,North,0,0.0,0.0,1,0.00,,,0.00,WUHU216HW,2013-06-02 18:01:00,
2013-06-02 14:06:00,71.6,12.2,29.28,North,0,0.0,0.0,1,0.00,,,0.00,WUHU216HW,2013-06-02 18:06:00,
2013-06-02 14:11:00,71.6,12.2,29.28,North,0,0.0,0.0,1,0.00,,,0.00,WUHU216HW,2013-06-02 18:11:00,
2013-06-02 14:16:00,71.6,12.2,29.28,North,0,0.0,0.0,1,0.00,,,0.00,WUHU216HW,2013-06-02 18:16:00,
2013-06-02 14:21:00,72.0,12.5,29.28,North,0,0.0,0.0,1,0.00,,,0.00,WUHU216HW,2013-06-02 18:21:00,
2013-06-02 14:26:00,72.0,12.5,29.28,North,0,0.0,0.0,1,0.00,,,0.00,WUHU216HW,2013-06-02 18:26:00,
2013-06-02 14:32:00,73.1,13.4,29.28,North,0,0.0,0.0,1,0.00,,,0.00,WUHU216HW,2013-06-02 18:32:00,
2013-06-02 14:37:00,75.1,14.9,29.28,North,0,0.0,0.0,1,0.00,,,0.00,WUHU216HW,2013-06-02 18:37:00,
2013-06-02 14:42:00,77.0,16.4,29.28,North,0,0.0,0.0,1,0.00,,,0.00,WUHU216HW,2013-06-02 18:42:00,
2013-06-02 14:47:00,78.5,17.4,29.27,North,0,0.0,0.0,1,0.00,,,0.00,WUHU216HW,2013-06-02 18:47:00,
2013-06-02 14:52:00,78.8,17.6,29.28,North,0,0.0,0.0,1,0.00,,,0.00,WUHU216HW,2013-06-02 18:52:00,
2013-06-02 14:57:00,79.2,17.9,29.28,North,0,0.0,0.0,1,0.00,,,0.00,WUHU216HW,2013-06-02 18:57:00,
2013-06-02 15:02:00,77.6,16.7,29.28,North,0,0.0,0.0,1,0.00,,,0.00,WUHU216HW,2013-06-02 19:02:00,
2013-06-02 15:07:00,76.0,15.5,29.28,North,0,0.0,0.0,1,0.00,,,0.00,WUHU216HW,2013-06-02 19:07:00,
2013-06-02 15:12:00,74.5,14.4,29.28,North,0,0.0,0.0,1,0.00,,,0.00,WUHU216HW,2013-06-02 19:12:00,
2013-06-02 15:18:00,73.4,13.7,29.28,North,0,0.0,0.0,1,0.00,,,0.00,WUHU216HW,2013-06-02 19:18:00,
2013-06-02 15:23:00,72.9,13.2,29.28,North,0,0.0,0.0,1,0.00,,,0.00,WUHU216HW,2013-06-02 19:23:00,
2013-06-02 15:28:00,72.5,13.0,29.28,North,0,0.0,0.0,1,0.00,,,0.00,WUHU216HW,2013-06-02 19:28:00,
2013-06-02 15:33:00,72.4,12.8,29.28,North,0,0.0,0.0,1,0.00,,,0.00,WUHU216HW,2013-06-02 19:33:00,
2013-06-02 15:38:00,71.3,12.0,29.29,North,0,0.0,0.0,1,0.00,,,0.00,WUHU216HW,2013-06-02 19:38:00,
2013-06-02 15:43:00,70.0,11.0,29.29,North,0,0.0,0.0,1,0.00,,,0.00,WUHU216HW,2013-06-02 19:43:00,
2013-06-02 15:48:00,68.8,10.1,29.29,North,0,0.0,0.0,1,0.00,,,0.00,WUHU216HW,2013-06-02 19:48:00,
2013-06-02 15:53:00,68.4,9.8,29.29,North,0,0.0,0.0,1,0.01,,,0.01,WUHU216HW,2013-06-02 19:53:00,
2013-06-02 15:58:00,68.0,9.5,29.29,North,0,0.0,0.0,1,0.01,,,0.01,WUHU216HW,2013-06-02 19:58:00,
2013-06-02 16:03:00,68.4,9.8,29.29,North,0,0.0,0.0,1,0.01,,,0.01,WUHU216HW,2013-06-02 20:03:00,
2013-06-02 16:08:00,68.2,9.6,29.29,North,0,0.0,0.0,1,0.01,,,0.01,WUHU216HW,2013-06-02 20:08:00,
2013-06-02 16:13:00,68.8,10.1,29.28,North,0,0.0,0.0,1,0.01,,,0.01,WUHU216HW,2013-06-02 20:13:00,
2013-06-02 16:18:00,69.7,10.7,29.29,North,0,0.0,0.0,1,0.01,,,0.01,WUHU216HW,2013-06-02 20:18:00,
2013-06-02 16:24:00,70.4,11.3,29.29,North,0,0.0,0.0,1,0.01,,,0.01,WUHU216HW,2013-06-02 20:24:00,
2013-06-02 16:29:00,71.1,11.8,29.29,North,0,0.0,0.0,1,0.01,,,0.01,WUHU216HW,2013-06-02 20:29:00,
2013-06-02 16:34:00,73.1,13.4,29.28,North,0,0.0,0.0,1,0.01,,,0.01,WUHU216HW,2013-06-02 20:34:00,
2013-06-02 16:39:00,74.5,14.4,29.28,North,0,0.0,0.0,1,0.01,,,0.01,WUHU216HW,2013-06-02 20:39:00,
2013-06-02 16:44:00,74.0,14.0,29.28,North,0,0.0,0.0,1,0.01,,,0.01,WUHU216HW,2013-06-02 20:44:00,
2013-06-02 16:49:00,72.9,13.2,29.28,North,0,0.0,0.0,1,0.00,,,0.01,WUHU216HW,2013-06-02 20:49:00,
2013-06-02 16:54:00,71.8,12.4,29.28,North,0,0.0,0.0,1,0.00,,,0.01,WUHU216HW,2013-06-02 20:54:00,
2013-06-02 16:59:00,71.3,12.0,29.28,North,0,0.0,0.0,1,0.00,,,0.01,WUHU216HW,2013-06-02 20:59:00,
2013-06-02 17:04:00,72.0,12.5,29.28,North,0,0.0,0.0,1,0.00,,,0.01,WUHU216HW,2013-06-02 21:04:00,
2013-06-02 17:09:00,72.4,12.8,29.28,North,0,0.0,0.0,1,0.00,,,0.01,WUHU216HW,2013-06-02 21:09:00,
2013-06-02 17:14:00,72.2,12.7,29.28,North,0,0.0,0.0,1,0.00,,,0.01,WUHU216HW,2013-06-02 21:14:00,
2013-06-02 17:19:00,73.3,13.5,29.27,North,0,0.0,0.0,1,0.00,,,0.01,WUHU216HW,2013-06-02 21:19:00,
2013-06-02 17:24:00,74.9,14.7,29.27,North,0,0.0,0.0,1,0.00,,,0.01,WUHU216HW,2013-06-02 21:24:00,
2013-06-02 17:29:00,75.6,15.2,29.28,North,0,0.0,0.0,1,0.00,,,0.01,WUHU216HW,2013-06-02 21:29:00,
2013-06-02 17:34:00,73.3,13.5,29.28,North,0,0.0,0.0,1,0.00,,,0.01,WUHU216HW,2013-06-02 21:34:00,
2013-06-02 17:40:00,71.1,11.8,29.28,North,0,0.0,0.0,1,0.00,,,0.01,WUHU216HW,2013-06-02 21:40:00,
2013-06-02 17:45:00,70.0,11.0,29.28,North,0,0.0,0.0,1,0.00,,,0.01,WUHU216HW,2013-06-02 21:45:00,
2013-06-02 17:50:00,68.6,9.9,29.28,North,0,0.0,0.0,1,0.00,,,0.01,WUHU216HW,2013-06-02 21:50:00,
2013-06-02 17:55:00,67.7,9.3,29.27,North,0,0.0,0.0,1,0.00,,,0.01,WUHU216HW,2013-06-02 21:55:00,
2013-06-02 18:00:00,67.7,9.3,29.28,North,0,0.0,0.0,1,0.00,,,0.01,WUHU216HW,2013-06-02 22:00:00,
2013-06-02 18:05:00,67.3,9.0,29.28,North,0,0.0,0.0,1,0.00,,,0.01,WUHU216HW,2013-06-02 22:05:00,
2013-06-02 18:10:00,67.0,8.6,29.28,North,0,0.0,0.0,1,0.00,,,0.01,WUHU216HW,2013-06-02 22:10:00,
2013-06-02 18:15:00,66.8,8.6,29.28,North,0,0.0,0.0,1,0.00,,,0.01,WUHU216HW,2013-06-02 22:15:00,
2013-06-02 18:20:00,67.0,8.6,29.28,North,0,0.0,0.0,1,0.00,,,0.01,WUHU216HW,2013-06-02 22:20:00,
2013-06-02 18:26:00,67.0,8.6,29.28,North,0,0.0,0.0,1,0.00,,,0.01,WUHU216HW,2013-06-02 22:26:00,
2013-06-02 18:31:00,66.8,8.6,29.28,North,0,0.0,0.0,1,0.00,,,0.01,WUHU216HW,2013-06-02 22:31:00,
2013-06-02 18:36:00,66.6,8.4,29.29,North,0,0.0,0.0,1,0.00,,,0.01,WUHU216HW,2013-06-02 22:36:00,
2013-06-02 18:41:00,66.4,8.3,29.29,North,0,0.0,0.0,1,0.00,,,0.01,WUHU216HW,2013-06-02 22:41:00,
2013-06-02 18:46:00,66.1,7.9,29.29,North,0,0.0,0.0,1,0.00,,,0.01,WUHU216HW,2013-06-02 22:46:00,
2013-06-02 18:51:00,66.2,8.1,29.29,North,0,0.0,0.0,1,0.00,,,0.01,WUHU216HW,2013-06-02 22:51:00,
2013-06-02 18:56:00,67.3,9.0,29.29,North,0,0.0,0.0,1,0.00,,,0.01,WUHU216HW,2013-06-02 22:56:00,
2013-06-02 19:01:00,67.3,9.0,29.29,North,0,0.0,0.0,1,0.00,,,0.01,WUHU216HW,2013-06-02 23:01:00,
2013-06-02 19:06:00,67.0,8.6,29.29,North,0,0.0,0.0,1,0.00,,,0.01,WUHU216HW,2013-06-02 23:06:00,
2013-06-02 19:12:00,66.6,8.4,29.29,North,0,0.0,0.0,1,0.00,,,0.01,WUHU216HW,2013-06-02 23:12:00,
2013-06-02 19:17:00,66.4,8.3,29.29,North,0,0.0,0.0,1,0.00,,,0.01,WUHU216HW,2013-06-02 23:17:00,
2013-06-02 19:22:00,66.4,8.3,29.29,North,0,0.0,0.0,1,0.00,,,0.01,WUHU216HW,2013-06-02 23:22:00,
2013-06-02 19:27:00,66.1,7.9,29.29,North,0,0.0,0.0,1,0.00,,,0.01,WUHU216HW,2013-06-02 23:27:00,
2013-06-02 19:32:00,65.3,7.4,29.29,North,0,0.0,0.0,1,0.00,,,0.01,WUHU216HW,2013-06-02 23:32:00,
2013-06-02 19:37:00,65.2,7.2,29.29,North,0,0.0,0.0,1,0.00,,,0.01,WUHU216HW,2013-06-02 23:37:00,
2013-06-02 19:42:00,64.8,6.9,29.29,North,0,0.0,0.0,1,0.00,,,0.01,WUHU216HW,2013-06-02 23:42:00,
2013-06-02 19:47:00,64.6,6.9,29.29,North,0,0.0,0.0,1,0.00,,,0.01,WUHU216HW,2013-06-02 23:47:00,
2013-06-02 19:53:00,64.6,6.9,29.29,North,0,0.0,0.0,1,0.00,,,0.01,WUHU216HW,2013-06-02 23:53:00,
2013-06-02 19:58:00,64.4,6.7,29.30,North,0,0.0,0.0,1,0.00,,,0.01,WUHU216HW,2013-06-02 23:58:00,
2013-06-02 20:03:00,64.3,6.6,29.30,North,0,0.0,0.0,1,0.00,,,0.01,WUHU216HW,2013-06-03 00:03:00,
2013-06-02 20:08:00,63.9,6.3,29.30,North,0,0.0,0.0,1,0.00,,,0.01,WUHU216HW,2013-06-03 00:08:00,
2013-06-02 20:13:00,63.7,6.1,29.30,North,0,0.0,0.0,1,0.00,,,0.01,WUHU216HW,2013-06-03 00:13:00,
2013-06-02 20:18:00,63.4,6.0,29.30,North,0,0.0,0.0,1,0.00,,,0.01,WUHU216HW,2013-06-03 00:18:00,
2013-06-02 20:23:00,63.0,5.7,29.31,North,0,0.0,0.0,1,0.00,,,0.01,WUHU216HW,2013-06-03 00:23:00,
2013-06-02 20:28:00,63.0,5.7,29.31,North,0,0.0,0.0,1,0.00,,,0.01,WUHU216HW,2013-06-03 00:28:00,
2013-06-02 20:34:00,62.8,5.5,29.31,North,0,0.0,0.0,1,0.00,,,0.01,WUHU216HW,2013-06-03 00:34:00,
2013-06-02 20:39:00,62.6,5.4,29.31,North,0,0.0,0.0,1,0.00,,,0.01,WUHU216HW,2013-06-03 00:39:00,
2013-06-02 20:44:00,62.5,5.2,29.31,North,0,0.0,0.0,1,0.00,,,0.01,WUHU216HW,2013-06-03 00:44:00,
2013-06-02 20:49:00,62.3,5.1,29.31,North,0,0.0,0.0,1,0.00,,,0.01,WUHU216HW,2013-06-03 00:49:00,
2013-06-02 20:54:00,62.3,5.1,29.31,North,0,0.0,0.0,1,0.00,,,0.01,WUHU216HW,2013-06-03 00:54:00,
2013-06-02 20:59:00,61.9,4.9,29.31,North,0,0.0,0.0,1,0.00,,,0.01,WUHU216HW,2013-06-03 00:59:00,
2013-06-02 21:04:00,61.9,4.9,29.31,North,0,0.0,0.0,1,0.00,,,0.01,WUHU216HW,2013-06-03 01:04:00,
2013-06-02 21:09:00,61.7,4.7,29.31,North,0,0.0,0.0,1,0.00,,,0.01,WUHU216HW,2013-06-03 01:09:00,
2013-06-02 21:14:00,61.7,4.7,29.31,North,0,0.0,0.0,1,0.00,,,0.01,WUHU216HW,2013-06-03 01:14:00,
2013-06-02 21:20:00,61.6,4.5,29.31,North,0,0.0,0.0,1,0.00,,,0.01,WUHU216HW,2013-06-03 01:20:00,
2013-06-02 21:25:00,61.4,4.4,29.31,North,0,0.0,0.0,1,0.00,,,0.01,WUHU216HW,2013-06-03 01:25:00,
2013-06-02 21:30:00,61.4,4.4,29.31,North,0,0.0,0.0,1,0.00,,,0.01,WUHU216HW,2013-06-03 01:30:00,
2013-06-02 21:35:00,61.2,4.2,29.32,North,0,0.0,0.0,1,0.00,,,0.01,WUHU216HW,2013-06-03 01:35:00,
2013-06-02 21:40:00,60.8,4.0,29.32,North,0,0.0,0.0,1,0.00,,,0.01,WUHU216HW,2013-06-03 01:40:00,
2013-06-02 21:45:00,60.8,4.0,29.32,North,0,0.0,0.0,1,0.00,,,0.01,WUHU216HW,2013-06-03 01:45:00,
2013-06-02 21:50:00,60.8,4.0,29.32,North,0,0.0,0.0,1,0.00,,,0.01,WUHU216HW,2013-06-03 01:50:00,
2013-06-02 21:55:00,60.7,3.8,29.32,North,0,0.0,0.0,1,0.00,,,0.01,WUHU216HW,2013-06-03 01:55:00,
2013-06-02 22:00:00,60.5,3.7,29.32,North,0,0.0,0.0,1,0.00,,,0.01,WUHU216HW,2013-06-03 02:00:00,
2013-06-02 22:05:00,60.5,3.7,29.33,North,0,0.0,0.0,1,0.00,,,0.01,WUHU216HW,2013-06-03 02:05:00,
2013-06-02 22:10:00,60.3,3.5,29.33,North,0,0.0,0.0,1,0.00,,,0.01,WUHU216HW,2013-06-03 02:10:00,
2013-06-02 22:15:00,60.3,3.5,29.34,North,0,0.0,0.0,1,0.00,,,0.01,WUHU216HW,2013-06-03 02:15:00,
2013-06-02 22:21:00,60.1,3.4,29.33,North,0,0.0,0.0,1,0.00,,,0.01,WUHU216HW,2013-06-03 02:21:00,
2013-06-02 22:26:00,60.1,3.4,29.34,North,0,0.0,0.0,1,0.00,,,0.01,WUHU216HW,2013-06-03 02:26:00,
2013-06-02 22:31:00,60.1,3.4,29.34,North,0,0.0,0.0,1,0.00,,,0.01,WUHU216HW,2013-06-03 02:31:00,
2013-06-02 22:36:00,60.1,3.4,29.34,North,0,0.0,0.0,1,0.00,,,0.01,WUHU216HW,2013-06-03 02:36:00,
2013-06-02 22:41:00,60.1,3.4,29.34,North,0,0.0,0.0,1,0.00,,,0.01,WUHU216HW,2013-06-03 02:41:00,
2013-06-02 22:46:00,60.1,3.4,29.34,North,0,0.0,0.0,1,0.00,,,0.01,WUHU216HW,2013-06-03 02:46:00,
2013-06-02 22:51:00,60.1,3.4,29.34,North,0,0.0,0.0,1,0.00,,,0.01,WUHU216HW,2013-06-03 02:51:00,
2013-06-02 22:56:00,60.1,3.4,29.34,North,0,0.0,0.0,1,0.00,,,0.01,WUHU216HW,2013-06-03 02:56:00,
2013-06-02 23:01:00,60.1,3.4,29.34,North,0,0.0,0.0,1,0.00,,,0.01,WUHU216HW,2013-06-03 03:01:00,
2013-06-02 23:07:00,59.9,3.2,29.34,North,0,0.0,0.0,1,0.00,,,0.01,WUHU216HW,2013-06-03 03:07:00,
2013-06-02 23:12:00,59.8,3.1,29.35,North,0,0.0,0.0,1,0.00,,,0.01,WUHU216HW,2013-06-03 03:12:00,
2013-06-02 23:17:00,59.4,2.8,29.34,North,0,0.0,0.0,1,0.00,,,0.01,WUHU216HW,2013-06-03 03:17:00,
2013-06-02 23:22:00,59.2,2.7,29.35,North,0,0.0,0.0,1,0.00,,,0.01,WUHU216HW,2013-06-03 03:22:00,
2013-06-02 23:27:00,58.9,2.3,29.34,North,0,0.0,0.0,1,0.00,,,0.01,WUHU216HW,2013-06-03 03:27:00,
2013-06-02 23:32:00,58.9,2.3,29.35,North,0,0.0,0.0,1,0.00,,,0.01,WUHU216HW,2013-06-03 03:32:00,
2013-06-02 23:37:00,58.7,2.3,29.34,North,0,0.0,0.0,1,0.00,,,0.01,WUHU216HW,2013-06-03 03:37:00,
2013-06-02 23:42:00,58.5,2.1,29.35,North,0,0.0,0.0,1,0.00,,,0.01,WUHU216HW,2013-06-03 03:42:00,
2013-06-02 23:47:00,58.3,2.0,29.35,North,0,0.0,0.0,1,0.00,,,0.01,WUHU216HW,2013-06-03 03:47:00,
2013-06-02 23:52:00,58.1,1.8,29.35,North,0,0.0,0.0,1,0.00,,,0.01,WUHU216HW,2013-06-03 03:52:00,
2013-06-02 23:57:00,58.1,1.8,29.35,North,0,0.0,0.0,1,0.00,,,0.01,WUHU216HW,2013-06-03 03:57:00,